sensor_id;sensor_type;location;lat;lon;timestamp;temperature;humidity
17827;DHT22;9038;48.208;16.308;2023-12-20T00:01:24;4.20;99.90
17827;DHT22;9038;48.208;16.308;2023-12-20T00:03:24;4.30;99.90
17827;DHT22;9038;48.208;16.308;2023-12-20T00:05:26;4.30;99.90
17827;DHT22;9038;48.208;16.308;2023-12-20T00:07:28;4.30;99.90
17827;DHT22;9038;48.208;16.308;2023-12-20T00:09:31;4.20;99.90
17827;DHT22;9038;48.208;16.308;2023-12-20T00:11:32;4.30;99.90
17827;DHT22;9038;48.208;16.308;2023-12-20T00:13:34;4.30;99.90
17827;DHT22;9038;48.208;16.308;2023-12-20T00:15:36;4.20;99.90
17827;DHT22;9038;48.208;16.308;2023-12-20T00:17:37;4.30;99.90
17827;DHT22;9038;48.208;16.308;2023-12-20T00:19:40;4.30;99.90
17827;DHT22;9038;48.208;16.308;2023-12-20T00:21:41;4.20;99.90
17827;DHT22;9038;48.208;16.308;2023-12-20T00:23:43;4.40;99.90
17827;DHT22;9038;48.208;16.308;2023-12-20T00:25:46;4.50;99.90
17827;DHT22;9038;48.208;16.308;2023-12-20T00:27:48;4.30;99.90
17827;DHT22;9038;48.208;16.308;2023-12-20T00:29:50;4.30;99.90
17827;DHT22;9038;48.208;16.308;2023-12-20T00:31:51;4.20;99.90
17827;DHT22;9038;48.208;16.308;2023-12-20T00:33:53;4.20;99.90
17827;DHT22;9038;48.208;16.308;2023-12-20T00:35:54;4.20;99.90
17827;DHT22;9038;48.208;16.308;2023-12-20T00:37:58;4.20;99.90
17827;DHT22;9038;48.208;16.308;2023-12-20T00:40:00;4.10;99.90
17827;DHT22;9038;48.208;16.308;2023-12-20T00:42:03;4.10;99.90
17827;DHT22;9038;48.208;16.308;2023-12-20T00:44:04;4.10;99.90
17827;DHT22;9038;48.208;16.308;2023-12-20T00:46:06;4.10;99.90
17827;DHT22;9038;48.208;16.308;2023-12-20T00:48:08;4.10;99.90
17827;DHT22;9038;48.208;16.308;2023-12-20T00:50:10;4.00;99.90
17827;DHT22;9038;48.208;16.308;2023-12-20T00:52:11;4.10;99.90
17827;DHT22;9038;48.208;16.308;2023-12-20T00:54:13;4.10;99.90
17827;DHT22;9038;48.208;16.308;2023-12-20T00:56:15;4.20;99.90
17827;DHT22;9038;48.208;16.308;2023-12-20T00:58:18;4.20;99.90
17827;DHT22;9038;48.208;16.308;2023-12-20T01:00:19;4.10;99.90
17827;DHT22;9038;48.208;16.308;2023-12-20T01:02:21;4.10;99.90
17827;DHT22;9038;48.208;16.308;2023-12-20T01:04:23;4.30;99.90
17827;DHT22;9038;48.208;16.308;2023-12-20T01:06:25;4.40;99.90
17827;DHT22;9038;48.208;16.308;2023-12-20T01:08:26;4.40;99.90
17827;DHT22;9038;48.208;16.308;2023-12-20T01:10:27;4.40;99.90
17827;DHT22;9038;48.208;16.308;2023-12-20T01:12:29;4.30;99.90
17827;DHT22;9038;48.208;16.308;2023-12-20T01:14:31;4.40;99.90
17827;DHT22;9038;48.208;16.308;2023-12-20T01:16:33;4.30;99.90
17827;DHT22;9038;48.208;16.308;2023-12-20T01:18:35;4.40;99.90
17827;DHT22;9038;48.208;16.308;2023-12-20T01:20:36;4.40;99.90
17827;DHT22;9038;48.208;16.308;2023-12-20T01:22:38;4.40;99.90
17827;DHT22;9038;48.208;16.308;2023-12-20T01:24:40;4.40;99.90
17827;DHT22;9038;48.208;16.308;2023-12-20T01:26:41;4.40;99.90
17827;DHT22;9038;48.208;16.308;2023-12-20T01:28:43;4.30;99.90
17827;DHT22;9038;48.208;16.308;2023-12-20T01:30:46;4.40;99.90
17827;DHT22;9038;48.208;16.308;2023-12-20T01:32:48;4.40;99.90
17827;DHT22;9038;48.208;16.308;2023-12-20T01:34:49;4.40;99.90
17827;DHT22;9038;48.208;16.308;2023-12-20T01:36:51;4.40;99.90
17827;DHT22;9038;48.208;16.308;2023-12-20T01:38:53;4.30;99.90
17827;DHT22;9038;48.208;16.308;2023-12-20T01:40:55;4.40;99.90
17827;DHT22;9038;48.208;16.308;2023-12-20T01:43:00;4.40;99.90
17827;DHT22;9038;48.208;16.308;2023-12-20T01:45:01;4.30;99.90
17827;DHT22;9038;48.208;16.308;2023-12-20T01:47:05;4.30;99.90
17827;DHT22;9038;48.208;16.308;2023-12-20T01:49:07;4.30;99.90
17827;DHT22;9038;48.208;16.308;2023-12-20T01:51:09;4.30;99.90
17827;DHT22;9038;48.208;16.308;2023-12-20T01:53:10;4.30;99.90
17827;DHT22;9038;48.208;16.308;2023-12-20T01:55:13;4.30;99.90
17827;DHT22;9038;48.208;16.308;2023-12-20T01:57:15;4.20;99.90
17827;DHT22;9038;48.208;16.308;2023-12-20T01:59:17;4.20;99.90
17827;DHT22;9038;48.208;16.308;2023-12-20T02:01:19;4.10;99.90
17827;DHT22;9038;48.208;16.308;2023-12-20T02:03:22;4.10;99.90
17827;DHT22;9038;48.208;16.308;2023-12-20T02:05:23;4.20;99.90
17827;DHT22;9038;48.208;16.308;2023-12-20T02:07:26;4.30;99.90
17827;DHT22;9038;48.208;16.308;2023-12-20T02:09:28;4.20;99.90
17827;DHT22;9038;48.208;16.308;2023-12-20T02:11:30;4.20;99.90
17827;DHT22;9038;48.208;16.308;2023-12-20T02:13:30;4.20;99.90
17827;DHT22;9038;48.208;16.308;2023-12-20T02:15:32;4.30;99.90
17827;DHT22;9038;48.208;16.308;2023-12-20T02:17:34;4.30;99.90
17827;DHT22;9038;48.208;16.308;2023-12-20T02:19:36;4.30;99.90
17827;DHT22;9038;48.208;16.308;2023-12-20T02:21:39;4.40;99.90
17827;DHT22;9038;48.208;16.308;2023-12-20T02:23:40;4.50;99.90
17827;DHT22;9038;48.208;16.308;2023-12-20T02:25:42;4.60;99.90
17827;DHT22;9038;48.208;16.308;2023-12-20T02:27:44;4.80;99.90
17827;DHT22;9038;48.208;16.308;2023-12-20T02:29:46;5.10;99.90
17827;DHT22;9038;48.208;16.308;2023-12-20T02:31:47;5.30;99.90
17827;DHT22;9038;48.208;16.308;2023-12-20T02:33:49;5.50;99.90
17827;DHT22;9038;48.208;16.308;2023-12-20T02:35:50;5.70;99.90
17827;DHT22;9038;48.208;16.308;2023-12-20T02:37:54;6.10;99.90
17827;DHT22;9038;48.208;16.308;2023-12-20T02:39:56;6.40;99.90
17827;DHT22;9038;48.208;16.308;2023-12-20T02:41:56;6.70;99.90
17827;DHT22;9038;48.208;16.308;2023-12-20T02:43:58;6.90;99.90
17827;DHT22;9038;48.208;16.308;2023-12-20T02:46:00;7.20;99.90
17827;DHT22;9038;48.208;16.308;2023-12-20T02:48:01;7.40;99.90
17827;DHT22;9038;48.208;16.308;2023-12-20T02:50:03;7.50;99.90
17827;DHT22;9038;48.208;16.308;2023-12-20T02:52:04;7.60;99.90
17827;DHT22;9038;48.208;16.308;2023-12-20T02:54:07;7.80;99.90
17827;DHT22;9038;48.208;16.308;2023-12-20T02:56:09;7.80;99.90
17827;DHT22;9038;48.208;16.308;2023-12-20T02:58:10;7.90;99.90
17827;DHT22;9038;48.208;16.308;2023-12-20T03:00:12;7.90;99.90
17827;DHT22;9038;48.208;16.308;2023-12-20T03:02:13;8.00;99.90
17827;DHT22;9038;48.208;16.308;2023-12-20T03:04:15;8.00;99.90
17827;DHT22;9038;48.208;16.308;2023-12-20T03:06:17;8.10;99.90
17827;DHT22;9038;48.208;16.308;2023-12-20T03:08:19;8.10;99.90
17827;DHT22;9038;48.208;16.308;2023-12-20T03:10:21;8.20;99.90
17827;DHT22;9038;48.208;16.308;2023-12-20T03:12:22;8.20;99.90
17827;DHT22;9038;48.208;16.308;2023-12-20T03:14:24;8.20;99.90
17827;DHT22;9038;48.208;16.308;2023-12-20T03:16:26;8.20;99.90
17827;DHT22;9038;48.208;16.308;2023-12-20T03:18:26;8.20;99.90
17827;DHT22;9038;48.208;16.308;2023-12-20T03:20:29;8.20;99.90
17827;DHT22;9038;48.208;16.308;2023-12-20T03:22:33;8.20;99.90
17827;DHT22;9038;48.208;16.308;2023-12-20T03:24:35;8.20;99.90
17827;DHT22;9038;48.208;16.308;2023-12-20T03:26:38;8.20;99.90
17827;DHT22;9038;48.208;16.308;2023-12-20T03:28:40;8.20;99.90
17827;DHT22;9038;48.208;16.308;2023-12-20T03:30:40;8.20;99.90
17827;DHT22;9038;48.208;16.308;2023-12-20T03:32:42;8.30;99.90
17827;DHT22;9038;48.208;16.308;2023-12-20T03:34:43;8.20;99.90
17827;DHT22;9038;48.208;16.308;2023-12-20T03:36:44;8.20;99.90
17827;DHT22;9038;48.208;16.308;2023-12-20T03:38:48;8.20;99.90
17827;DHT22;9038;48.208;16.308;2023-12-20T03:40:48;8.30;99.90
17827;DHT22;9038;48.208;16.308;2023-12-20T03:42:51;8.20;99.90
17827;DHT22;9038;48.208;16.308;2023-12-20T03:44:53;8.30;99.90
17827;DHT22;9038;48.208;16.308;2023-12-20T03:46:54;8.30;99.90
17827;DHT22;9038;48.208;16.308;2023-12-20T03:48:55;8.20;99.90
17827;DHT22;9038;48.208;16.308;2023-12-20T03:50:57;8.20;99.90
17827;DHT22;9038;48.208;16.308;2023-12-20T03:52:59;8.10;99.90
17827;DHT22;9038;48.208;16.308;2023-12-20T03:55:00;8.00;99.90
17827;DHT22;9038;48.208;16.308;2023-12-20T03:57:01;8.00;99.90
17827;DHT22;9038;48.208;16.308;2023-12-20T03:59:04;8.00;99.90
17827;DHT22;9038;48.208;16.308;2023-12-20T04:01:09;8.00;99.90
17827;DHT22;9038;48.208;16.308;2023-12-20T04:03:11;7.90;99.90
17827;DHT22;9038;48.208;16.308;2023-12-20T04:05:13;7.80;99.90
17827;DHT22;9038;48.208;16.308;2023-12-20T04:07:15;7.60;99.90
17827;DHT22;9038;48.208;16.308;2023-12-20T04:09:16;7.40;99.90
17827;DHT22;9038;48.208;16.308;2023-12-20T04:11:18;7.20;99.90
17827;DHT22;9038;48.208;16.308;2023-12-20T04:13:20;7.10;99.90
17827;DHT22;9038;48.208;16.308;2023-12-20T04:15:23;6.90;99.90
17827;DHT22;9038;48.208;16.308;2023-12-20T04:17:23;6.90;99.90
17827;DHT22;9038;48.208;16.308;2023-12-20T04:19:25;6.90;99.90
17827;DHT22;9038;48.208;16.308;2023-12-20T04:21:26;6.90;99.90
17827;DHT22;9038;48.208;16.308;2023-12-20T04:23:27;6.90;99.90
17827;DHT22;9038;48.208;16.308;2023-12-20T04:25:28;7.00;99.90
17827;DHT22;9038;48.208;16.308;2023-12-20T04:27:30;7.10;99.90
17827;DHT22;9038;48.208;16.308;2023-12-20T04:29:31;7.10;99.90
17827;DHT22;9038;48.208;16.308;2023-12-20T04:31:33;7.20;99.90
17827;DHT22;9038;48.208;16.308;2023-12-20T04:33:35;7.30;99.90
17827;DHT22;9038;48.208;16.308;2023-12-20T04:35:36;7.40;99.90
17827;DHT22;9038;48.208;16.308;2023-12-20T04:37:38;7.50;99.90
17827;DHT22;9038;48.208;16.308;2023-12-20T04:39:40;7.50;99.90
17827;DHT22;9038;48.208;16.308;2023-12-20T04:41:41;7.60;99.90
17827;DHT22;9038;48.208;16.308;2023-12-20T04:43:43;7.70;99.90
17827;DHT22;9038;48.208;16.308;2023-12-20T04:45:45;7.70;99.90
17827;DHT22;9038;48.208;16.308;2023-12-20T04:47:48;7.80;99.90
17827;DHT22;9038;48.208;16.308;2023-12-20T04:49:49;7.80;99.90
17827;DHT22;9038;48.208;16.308;2023-12-20T04:51:51;7.90;99.90
17827;DHT22;9038;48.208;16.308;2023-12-20T04:53:52;8.00;99.90
17827;DHT22;9038;48.208;16.308;2023-12-20T04:55:53;8.10;99.90
17827;DHT22;9038;48.208;16.308;2023-12-20T04:57:55;8.20;99.90
17827;DHT22;9038;48.208;16.308;2023-12-20T04:59:58;8.30;99.90
17827;DHT22;9038;48.208;16.308;2023-12-20T05:01:59;8.30;99.90
17827;DHT22;9038;48.208;16.308;2023-12-20T05:04:02;8.30;99.90
17827;DHT22;9038;48.208;16.308;2023-12-20T05:06:04;8.30;99.90
17827;DHT22;9038;48.208;16.308;2023-12-20T05:08:06;8.40;99.90
17827;DHT22;9038;48.208;16.308;2023-12-20T05:10:08;8.40;99.90
17827;DHT22;9038;48.208;16.308;2023-12-20T05:12:09;8.40;99.90
17827;DHT22;9038;48.208;16.308;2023-12-20T05:14:11;8.40;99.90
17827;DHT22;9038;48.208;16.308;2023-12-20T05:16:13;8.40;99.90
17827;DHT22;9038;48.208;16.308;2023-12-20T05:18:18;8.40;99.90
17827;DHT22;9038;48.208;16.308;2023-12-20T05:20:20;8.40;99.90
17827;DHT22;9038;48.208;16.308;2023-12-20T05:22:23;8.40;99.90
17827;DHT22;9038;48.208;16.308;2023-12-20T05:24:25;8.40;99.90
17827;DHT22;9038;48.208;16.308;2023-12-20T05:26:26;8.40;99.90
17827;DHT22;9038;48.208;16.308;2023-12-20T05:28:29;8.50;99.90
17827;DHT22;9038;48.208;16.308;2023-12-20T05:30:31;8.50;99.90
17827;DHT22;9038;48.208;16.308;2023-12-20T05:32:33;8.50;99.90
17827;DHT22;9038;48.208;16.308;2023-12-20T05:34:34;8.50;99.90
17827;DHT22;9038;48.208;16.308;2023-12-20T05:36:38;8.50;99.90
17827;DHT22;9038;48.208;16.308;2023-12-20T05:38:39;8.50;99.90
17827;DHT22;9038;48.208;16.308;2023-12-20T05:40:40;8.60;99.90
17827;DHT22;9038;48.208;16.308;2023-12-20T05:42:42;8.60;99.90
17827;DHT22;9038;48.208;16.308;2023-12-20T05:44:43;8.60;99.90
17827;DHT22;9038;48.208;16.308;2023-12-20T05:46:45;8.60;99.90
17827;DHT22;9038;48.208;16.308;2023-12-20T05:48:47;8.70;99.90
17827;DHT22;9038;48.208;16.308;2023-12-20T05:50:49;8.70;99.90
17827;DHT22;9038;48.208;16.308;2023-12-20T05:52:52;8.70;99.90
17827;DHT22;9038;48.208;16.308;2023-12-20T05:54:54;8.80;99.90
17827;DHT22;9038;48.208;16.308;2023-12-20T05:56:56;8.80;99.90
17827;DHT22;9038;48.208;16.308;2023-12-20T05:58:57;8.80;99.90
17827;DHT22;9038;48.208;16.308;2023-12-20T06:01:00;8.80;99.90
17827;DHT22;9038;48.208;16.308;2023-12-20T06:03:01;8.90;99.90
17827;DHT22;9038;48.208;16.308;2023-12-20T06:05:05;8.90;99.90
17827;DHT22;9038;48.208;16.308;2023-12-20T06:07:07;9.00;99.90
17827;DHT22;9038;48.208;16.308;2023-12-20T06:09:10;9.00;99.90
17827;DHT22;9038;48.208;16.308;2023-12-20T06:11:12;9.00;99.90
17827;DHT22;9038;48.208;16.308;2023-12-20T06:13:13;9.10;99.90
17827;DHT22;9038;48.208;16.308;2023-12-20T06:15:15;9.10;99.90
17827;DHT22;9038;48.208;16.308;2023-12-20T06:17:17;9.10;99.90
17827;DHT22;9038;48.208;16.308;2023-12-20T06:19:18;9.10;99.90
17827;DHT22;9038;48.208;16.308;2023-12-20T06:21:20;9.20;99.90
17827;DHT22;9038;48.208;16.308;2023-12-20T06:23:22;9.20;99.90
17827;DHT22;9038;48.208;16.308;2023-12-20T06:25:25;9.20;99.90
17827;DHT22;9038;48.208;16.308;2023-12-20T06:27:26;9.20;99.90
17827;DHT22;9038;48.208;16.308;2023-12-20T06:29:28;9.20;99.90
17827;DHT22;9038;48.208;16.308;2023-12-20T06:31:29;9.20;99.90
17827;DHT22;9038;48.208;16.308;2023-12-20T06:33:30;9.20;99.90
17827;DHT22;9038;48.208;16.308;2023-12-20T06:35:32;9.20;99.90
17827;DHT22;9038;48.208;16.308;2023-12-20T06:37:33;9.20;99.90
17827;DHT22;9038;48.208;16.308;2023-12-20T06:39:35;9.20;99.90
17827;DHT22;9038;48.208;16.308;2023-12-20T06:41:38;9.20;99.90
17827;DHT22;9038;48.208;16.308;2023-12-20T06:43:40;9.20;99.90
17827;DHT22;9038;48.208;16.308;2023-12-20T06:45:42;9.20;99.90
17827;DHT22;9038;48.208;16.308;2023-12-20T06:47:44;9.20;99.90
17827;DHT22;9038;48.208;16.308;2023-12-20T06:49:44;9.20;99.90
17827;DHT22;9038;48.208;16.308;2023-12-20T06:51:46;9.30;99.90
17827;DHT22;9038;48.208;16.308;2023-12-20T06:53:48;9.30;99.90
17827;DHT22;9038;48.208;16.308;2023-12-20T06:55:49;9.30;99.90
17827;DHT22;9038;48.208;16.308;2023-12-20T06:57:52;9.30;99.90
17827;DHT22;9038;48.208;16.308;2023-12-20T06:59:54;9.30;99.90
17827;DHT22;9038;48.208;16.308;2023-12-20T07:01:56;9.40;99.90
17827;DHT22;9038;48.208;16.308;2023-12-20T07:03:57;9.40;99.90
17827;DHT22;9038;48.208;16.308;2023-12-20T07:05:59;9.40;99.90
17827;DHT22;9038;48.208;16.308;2023-12-20T07:08:01;9.40;99.90
17827;DHT22;9038;48.208;16.308;2023-12-20T07:10:03;9.40;99.90
17827;DHT22;9038;48.208;16.308;2023-12-20T07:12:04;9.40;99.90
17827;DHT22;9038;48.208;16.308;2023-12-20T07:14:07;9.40;99.90
17827;DHT22;9038;48.208;16.308;2023-12-20T07:16:09;9.50;99.90
17827;DHT22;9038;48.208;16.308;2023-12-20T07:18:11;9.50;99.90
17827;DHT22;9038;48.208;16.308;2023-12-20T07:20:13;9.60;99.90
17827;DHT22;9038;48.208;16.308;2023-12-20T07:22:13;9.50;99.90
17827;DHT22;9038;48.208;16.308;2023-12-20T07:24:15;9.50;99.90
17827;DHT22;9038;48.208;16.308;2023-12-20T07:26:17;9.50;99.90
17827;DHT22;9038;48.208;16.308;2023-12-20T07:28:18;9.50;99.90
17827;DHT22;9038;48.208;16.308;2023-12-20T07:30:20;9.40;99.90
17827;DHT22;9038;48.208;16.308;2023-12-20T07:32:22;9.40;99.90
17827;DHT22;9038;48.208;16.308;2023-12-20T07:34:24;9.30;99.90
17827;DHT22;9038;48.208;16.308;2023-12-20T07:36:26;9.20;99.90
17827;DHT22;9038;48.208;16.308;2023-12-20T07:38:27;9.20;99.90
17827;DHT22;9038;48.208;16.308;2023-12-20T07:40:29;9.10;99.90
17827;DHT22;9038;48.208;16.308;2023-12-20T07:42:30;9.10;99.90
17827;DHT22;9038;48.208;16.308;2023-12-20T07:44:31;9.00;99.90
17827;DHT22;9038;48.208;16.308;2023-12-20T07:46:34;9.10;99.90
17827;DHT22;9038;48.208;16.308;2023-12-20T07:48:36;9.10;99.90
17827;DHT22;9038;48.208;16.308;2023-12-20T07:50:38;9.00;99.90
17827;DHT22;9038;48.208;16.308;2023-12-20T07:52:38;9.00;99.90
17827;DHT22;9038;48.208;16.308;2023-12-20T07:54:40;8.90;99.90
17827;DHT22;9038;48.208;16.308;2023-12-20T07:56:42;8.90;99.90
17827;DHT22;9038;48.208;16.308;2023-12-20T07:58:44;8.90;99.90
17827;DHT22;9038;48.208;16.308;2023-12-20T08:00:45;8.90;99.90
17827;DHT22;9038;48.208;16.308;2023-12-20T08:02:48;8.90;99.90
17827;DHT22;9038;48.208;16.308;2023-12-20T08:04:49;8.90;99.90
17827;DHT22;9038;48.208;16.308;2023-12-20T08:06:51;8.90;99.90
17827;DHT22;9038;48.208;16.308;2023-12-20T08:08:53;8.90;99.90
17827;DHT22;9038;48.208;16.308;2023-12-20T08:10:54;8.90;99.90
17827;DHT22;9038;48.208;16.308;2023-12-20T08:12:55;8.90;99.90
17827;DHT22;9038;48.208;16.308;2023-12-20T08:14:57;9.00;99.90
17827;DHT22;9038;48.208;16.308;2023-12-20T08:16:58;9.00;99.90
17827;DHT22;9038;48.208;16.308;2023-12-20T08:19:01;9.00;99.90
17827;DHT22;9038;48.208;16.308;2023-12-20T08:21:03;9.00;99.90
17827;DHT22;9038;48.208;16.308;2023-12-20T08:23:04;9.00;99.90
17827;DHT22;9038;48.208;16.308;2023-12-20T08:25:06;9.00;99.90
17827;DHT22;9038;48.208;16.308;2023-12-20T08:27:09;8.90;99.90
17827;DHT22;9038;48.208;16.308;2023-12-20T08:29:12;8.90;99.90
17827;DHT22;9038;48.208;16.308;2023-12-20T08:31:14;8.90;99.90
17827;DHT22;9038;48.208;16.308;2023-12-20T08:33:15;8.90;99.90
17827;DHT22;9038;48.208;16.308;2023-12-20T08:35:18;9.00;99.90
17827;DHT22;9038;48.208;16.308;2023-12-20T08:37:19;9.00;99.90
17827;DHT22;9038;48.208;16.308;2023-12-20T08:39:20;9.00;99.90
17827;DHT22;9038;48.208;16.308;2023-12-20T08:41:22;9.10;99.90
17827;DHT22;9038;48.208;16.308;2023-12-20T08:43:24;9.10;99.90
17827;DHT22;9038;48.208;16.308;2023-12-20T08:45:25;9.10;99.90
17827;DHT22;9038;48.208;16.308;2023-12-20T08:47:26;9.10;99.90
17827;DHT22;9038;48.208;16.308;2023-12-20T08:49:28;9.20;99.90
17827;DHT22;9038;48.208;16.308;2023-12-20T08:51:31;9.20;99.90
17827;DHT22;9038;48.208;16.308;2023-12-20T08:53:34;9.10;99.90
17827;DHT22;9038;48.208;16.308;2023-12-20T08:55:34;9.10;99.90
17827;DHT22;9038;48.208;16.308;2023-12-20T08:57:36;8.90;99.90
17827;DHT22;9038;48.208;16.308;2023-12-20T08:59:37;8.90;99.90
17827;DHT22;9038;48.208;16.308;2023-12-20T09:01:38;8.90;99.90
17827;DHT22;9038;48.208;16.308;2023-12-20T09:03:40;8.90;99.90
17827;DHT22;9038;48.208;16.308;2023-12-20T09:05:41;8.90;99.90
17827;DHT22;9038;48.208;16.308;2023-12-20T09:07:44;8.90;99.90
17827;DHT22;9038;48.208;16.308;2023-12-20T09:09:46;8.90;99.90
17827;DHT22;9038;48.208;16.308;2023-12-20T09:11:47;8.90;99.90
17827;DHT22;9038;48.208;16.308;2023-12-20T09:13:51;8.90;99.90
17827;DHT22;9038;48.208;16.308;2023-12-20T09:15:53;8.80;99.90
17827;DHT22;9038;48.208;16.308;2023-12-20T09:17:54;8.80;99.90
17827;DHT22;9038;48.208;16.308;2023-12-20T09:19:55;8.70;99.90
17827;DHT22;9038;48.208;16.308;2023-12-20T09:21:57;8.80;99.90
17827;DHT22;9038;48.208;16.308;2023-12-20T09:24:00;8.70;99.90
17827;DHT22;9038;48.208;16.308;2023-12-20T09:26:02;8.70;99.90
17827;DHT22;9038;48.208;16.308;2023-12-20T09:28:03;8.70;99.90
17827;DHT22;9038;48.208;16.308;2023-12-20T09:30:05;8.50;99.90
17827;DHT22;9038;48.208;16.308;2023-12-20T09:32:06;8.60;99.90
17827;DHT22;9038;48.208;16.308;2023-12-20T09:34:08;8.70;99.90
17827;DHT22;9038;48.208;16.308;2023-12-20T09:36:10;8.60;99.90
17827;DHT22;9038;48.208;16.308;2023-12-20T09:38:11;8.50;99.90
17827;DHT22;9038;48.208;16.308;2023-12-20T09:40:18;8.50;99.90
17827;DHT22;9038;48.208;16.308;2023-12-20T09:42:21;8.50;99.90
17827;DHT22;9038;48.208;16.308;2023-12-20T09:44:26;8.50;99.90
17827;DHT22;9038;48.208;16.308;2023-12-20T09:46:26;8.50;99.90
17827;DHT22;9038;48.208;16.308;2023-12-20T09:48:30;8.40;99.90
17827;DHT22;9038;48.208;16.308;2023-12-20T09:50:32;8.30;99.90
17827;DHT22;9038;48.208;16.308;2023-12-20T09:52:34;8.20;99.90
17827;DHT22;9038;48.208;16.308;2023-12-20T09:54:37;8.20;99.90
17827;DHT22;9038;48.208;16.308;2023-12-20T09:56:40;8.10;99.90
17827;DHT22;9038;48.208;16.308;2023-12-20T09:58:41;8.10;99.90
17827;DHT22;9038;48.208;16.308;2023-12-20T10:00:43;8.10;99.90
17827;DHT22;9038;48.208;16.308;2023-12-20T10:02:45;8.00;99.90
17827;DHT22;9038;48.208;16.308;2023-12-20T10:04:49;8.00;99.90
17827;DHT22;9038;48.208;16.308;2023-12-20T10:06:50;8.00;99.90
17827;DHT22;9038;48.208;16.308;2023-12-20T10:08:52;8.00;99.90
17827;DHT22;9038;48.208;16.308;2023-12-20T10:10:54;7.90;99.90
17827;DHT22;9038;48.208;16.308;2023-12-20T10:13:02;7.90;99.90
17827;DHT22;9038;48.208;16.308;2023-12-20T10:15:04;7.90;99.90
17827;DHT22;9038;48.208;16.308;2023-12-20T10:17:06;7.80;99.90
17827;DHT22;9038;48.208;16.308;2023-12-20T10:19:08;7.80;99.90
17827;DHT22;9038;48.208;16.308;2023-12-20T10:21:09;7.80;99.90
17827;DHT22;9038;48.208;16.308;2023-12-20T10:23:12;7.90;99.90
17827;DHT22;9038;48.208;16.308;2023-12-20T10:25:14;7.90;99.90
17827;DHT22;9038;48.208;16.308;2023-12-20T10:27:15;7.90;99.90
17827;DHT22;9038;48.208;16.308;2023-12-20T10:29:21;8.00;99.90
17827;DHT22;9038;48.208;16.308;2023-12-20T10:31:26;8.00;99.90
17827;DHT22;9038;48.208;16.308;2023-12-20T10:33:28;8.00;99.90
17827;DHT22;9038;48.208;16.308;2023-12-20T10:35:30;8.00;99.90
17827;DHT22;9038;48.208;16.308;2023-12-20T10:37:31;8.00;99.90
17827;DHT22;9038;48.208;16.308;2023-12-20T10:39:36;8.00;99.90
17827;DHT22;9038;48.208;16.308;2023-12-20T10:41:38;8.00;99.90
17827;DHT22;9038;48.208;16.308;2023-12-20T10:43:41;8.10;99.90
17827;DHT22;9038;48.208;16.308;2023-12-20T10:45:44;8.10;99.90
17827;DHT22;9038;48.208;16.308;2023-12-20T10:47:46;8.20;99.90
17827;DHT22;9038;48.208;16.308;2023-12-20T10:49:48;8.10;99.90
17827;DHT22;9038;48.208;16.308;2023-12-20T10:51:51;8.20;99.90
17827;DHT22;9038;48.208;16.308;2023-12-20T10:53:54;8.30;99.90
17827;DHT22;9038;48.208;16.308;2023-12-20T10:55:56;8.30;99.90
17827;DHT22;9038;48.208;16.308;2023-12-20T10:58:01;8.30;99.90
17827;DHT22;9038;48.208;16.308;2023-12-20T11:00:03;8.40;99.90
17827;DHT22;9038;48.208;16.308;2023-12-20T11:02:08;8.40;99.90
17827;DHT22;9038;48.208;16.308;2023-12-20T11:04:12;8.40;99.90
17827;DHT22;9038;48.208;16.308;2023-12-20T11:06:25;8.40;99.90
17827;DHT22;9038;48.208;16.308;2023-12-20T11:08:28;8.50;99.90
17827;DHT22;9038;48.208;16.308;2023-12-20T11:10:36;8.50;99.90
17827;DHT22;9038;48.208;16.308;2023-12-20T11:12:41;8.50;99.90
17827;DHT22;9038;48.208;16.308;2023-12-20T11:14:46;8.50;99.90
17827;DHT22;9038;48.208;16.308;2023-12-20T11:16:48;8.50;99.90
17827;DHT22;9038;48.208;16.308;2023-12-20T11:18:53;8.50;99.90
17827;DHT22;9038;48.208;16.308;2023-12-20T11:20:54;8.50;99.90
17827;DHT22;9038;48.208;16.308;2023-12-20T11:22:56;8.60;99.90
17827;DHT22;9038;48.208;16.308;2023-12-20T11:25:02;8.60;99.90
17827;DHT22;9038;48.208;16.308;2023-12-20T11:27:03;8.60;99.90
17827;DHT22;9038;48.208;16.308;2023-12-20T11:31:21;8.50;99.90
17827;DHT22;9038;48.208;16.308;2023-12-20T11:33:22;8.50;99.90
17827;DHT22;9038;48.208;16.308;2023-12-20T11:35:25;8.60;99.90
17827;DHT22;9038;48.208;16.308;2023-12-20T11:37:30;8.60;99.90
17827;DHT22;9038;48.208;16.308;2023-12-20T11:39:32;8.60;99.90
17827;DHT22;9038;48.208;16.308;2023-12-20T11:41:34;8.60;99.90
17827;DHT22;9038;48.208;16.308;2023-12-20T11:43:38;8.60;99.90
17827;DHT22;9038;48.208;16.308;2023-12-20T11:45:47;8.70;99.90
17827;DHT22;9038;48.208;16.308;2023-12-20T11:47:50;8.70;99.90
17827;DHT22;9038;48.208;16.308;2023-12-20T11:49:54;8.70;99.90
17827;DHT22;9038;48.208;16.308;2023-12-20T11:51:57;8.70;99.90
17827;DHT22;9038;48.208;16.308;2023-12-20T11:54:00;8.80;99.90
17827;DHT22;9038;48.208;16.308;2023-12-20T11:56:03;8.80;99.90
17827;DHT22;9038;48.208;16.308;2023-12-20T11:58:03;8.90;99.90
17827;DHT22;9038;48.208;16.308;2023-12-20T12:00:06;9.00;99.90
17827;DHT22;9038;48.208;16.308;2023-12-20T12:02:11;9.00;99.90
17827;DHT22;9038;48.208;16.308;2023-12-20T12:04:13;9.10;99.90
17827;DHT22;9038;48.208;16.308;2023-12-20T12:06:15;9.10;99.90
17827;DHT22;9038;48.208;16.308;2023-12-20T12:08:17;9.10;99.90
17827;DHT22;9038;48.208;16.308;2023-12-20T12:10:19;9.20;99.90
17827;DHT22;9038;48.208;16.308;2023-12-20T12:12:23;9.30;99.90
17827;DHT22;9038;48.208;16.308;2023-12-20T12:14:25;9.30;99.90
17827;DHT22;9038;48.208;16.308;2023-12-20T12:16:27;9.40;99.90
17827;DHT22;9038;48.208;16.308;2023-12-20T12:18:29;9.40;99.90
17827;DHT22;9038;48.208;16.308;2023-12-20T12:20:30;9.40;99.90
17827;DHT22;9038;48.208;16.308;2023-12-20T12:22:32;9.40;99.90
17827;DHT22;9038;48.208;16.308;2023-12-20T12:24:35;9.50;99.90
17827;DHT22;9038;48.208;16.308;2023-12-20T12:26:37;9.50;99.90
17827;DHT22;9038;48.208;16.308;2023-12-20T12:28:40;9.50;99.90
17827;DHT22;9038;48.208;16.308;2023-12-20T12:30:41;9.50;99.90
17827;DHT22;9038;48.208;16.308;2023-12-20T12:32:43;9.50;99.90
17827;DHT22;9038;48.208;16.308;2023-12-20T12:34:45;9.50;99.90
17827;DHT22;9038;48.208;16.308;2023-12-20T12:36:46;9.60;99.90
17827;DHT22;9038;48.208;16.308;2023-12-20T12:38:49;9.50;99.90
17827;DHT22;9038;48.208;16.308;2023-12-20T12:40:52;9.60;99.90
17827;DHT22;9038;48.208;16.308;2023-12-20T12:42:54;9.60;99.90
17827;DHT22;9038;48.208;16.308;2023-12-20T12:44:56;9.50;99.90
17827;DHT22;9038;48.208;16.308;2023-12-20T12:46:58;9.40;99.90
17827;DHT22;9038;48.208;16.308;2023-12-20T12:48:58;9.40;99.90
17827;DHT22;9038;48.208;16.308;2023-12-20T12:51:00;9.20;99.90
17827;DHT22;9038;48.208;16.308;2023-12-20T12:53:02;9.30;99.90
17827;DHT22;9038;48.208;16.308;2023-12-20T12:55:04;9.20;99.90
17827;DHT22;9038;48.208;16.308;2023-12-20T12:57:06;9.20;99.90
17827;DHT22;9038;48.208;16.308;2023-12-20T12:59:08;9.20;99.90
17827;DHT22;9038;48.208;16.308;2023-12-20T13:01:10;9.20;99.90
17827;DHT22;9038;48.208;16.308;2023-12-20T13:03:11;9.20;99.90
17827;DHT22;9038;48.208;16.308;2023-12-20T13:05:13;9.20;99.90